Saint-Simon-De-Rimouski, Canada
Current Conditions -  °F | °C
As of 5:00 PM on Wednesday 22 Oct 2014 (Local Time) from CYYY Reporting Station
Few Clouds Few Clouds  
Wind Chill: -1°   Ceiling: Unl
Heat Index:   Visibility: 30mi
Dew Point:   Wind: 15mph
Humidity: 81%   Direction: 60°ENE
Pressure: 30.45"   Gusts: 22mph
Location:  48.2°N, 69.02°W
Report Text: CYYY 222100Z 06013G19KT 30SM FEW200 04/01 A3045 RMK CI2 SLP315
Loading
Personal Weather Stations






























Interactive Weather Map
Tropical Storm Tracking
New forecast layout! Learn more

10-Day Weather Forecast

Advertisements
Track Severe Weather on mobile